Time;durP1;ratioP1;P1;durP2;ratioP2;P2;SDS_P1;SDS_P2;PMS_P1;PMS_P2;Temp;Humidity;BMP_temperature;BMP_pressure;BME280_temperature;BME280_humidity;BME280_pressure;Samples;Min_cycle;Max_cycle;Signal;HPM_P1;HPM_P2
2022/05/04 00:00:06;;;;;;;25.92;7.05;;;;;;;10.21;71.11;100101.84;5008881;28;20033;-83
2022/05/04 00:02:31;;;;;;;14.48;7.30;;;;;;;10.18;71.59;100096.91;5007590;28;20484;-83
2022/05/04 00:04:56;;;;;;;15.73;8.95;;;;;;;10.11;71.38;100097.91;5008738;28;20036;-82
2022/05/04 00:07:22;;;;;;;19.67;7.93;;;;;;;9.75;72.56;100101.00;5022618;28;20068;-83
2022/05/04 00:09:47;;;;;;;11.07;6.32;;;;;;;9.69;73.60;100094.66;5007317;28;20266;-83
2022/05/04 00:12:12;;;;;;;18.63;9.50;;;;;;;9.49;73.57;100092.47;5007929;28;20049;-83
2022/05/04 00:14:37;;;;;;;17.50;7.97;;;;;;;9.37;74.22;100089.84;5008251;28;20272;-83
2022/05/04 00:17:03;;;;;;;17.00;8.93;;;;;;;9.06;75.58;100100.22;5007235;28;20301;-83
2022/05/04 00:19:28;;;;;;;21.90;7.90;;;;;;;9.38;74.41;100093.38;5007903;28;20125;-83
2022/05/04 00:21:53;;;;;;;14.43;7.33;;;;;;;9.49;73.96;100097.06;5007974;28;20112;-82
2022/05/04 00:24:20;;;;;;;21.13;8.93;;;;;;;9.37;74.54;100105.34;5007910;28;20610;-82
2022/05/04 00:26:48;;;;;;;14.23;7.07;;;;;;;9.44;74.29;100101.38;5008712;28;20351;-83
2022/05/04 00:29:17;;;;;;;13.75;7.63;;;;;;;9.31;74.95;100101.72;5008119;28;20028;-83
2022/05/04 00:31:42;;;;;;;33.20;7.93;;;;;;;9.33;74.45;100099.56;5007273;28;20026;-82
2022/05/04 00:34:07;;;;;;;15.10;7.37;;;;;;;9.09;74.57;100100.53;5007963;28;20095;-83
2022/05/04 00:36:33;;;;;;;13.95;6.97;;;;;;;9.17;74.95;100093.88;5007262;28;20316;-82
2022/05/04 00:38:59;;;;;;;17.15;7.03;;;;;;;9.31;74.31;100093.56;5005975;28;20029;-83
2022/05/04 00:41:24;;;;;;;17.92;7.38;;;;;;;9.29;74.62;100085.66;5006796;28;20444;-83
2022/05/04 00:43:51;;;;;;;13.50;6.47;;;;;;;9.34;73.96;100091.16;5007732;28;20022;-83
2022/05/04 00:46:17;;;;;;;15.80;6.97;;;;;;;9.45;73.34;100091.31;5006454;28;20469;-83
2022/05/04 00:48:42;;;;;;;15.05;5.68;;;;;;;9.31;74.04;100082.66;5009501;28;20492;-83
2022/05/04 00:51:07;;;;;;;15.00;7.38;;;;;;;9.19;73.75;100090.91;5006811;28;20112;-83
2022/05/04 00:53:33;;;;;;;19.43;7.90;;;;;;;9.27;73.54;100084.22;5007419;28;20029;-83
2022/05/04 00:56:00;;;;;;;21.10;9.10;;;;;;;9.21;73.78;100086.84;5006144;28;20271;-83
2022/05/04 01:01:09;;;;;;;15.10;6.28;;;;;;;9.08;74.62;100088.03;5005816;28;20543;-82
2022/05/04 01:03:37;;;;;;;13.13;7.25;;;;;;;9.08;74.61;100093.47;5007613;28;20033;-83
2022/05/04 01:06:02;;;;;;;19.27;7.97;;;;;;;9.03;74.60;100092.56;5007023;28;20481;-83
2022/05/04 01:08:28;;;;;;;15.00;6.35;;;;;;;8.98;75.10;100088.69;5006803;28;20046;-83
2022/05/04 01:13:37;;;;;;;13.52;5.88;;;;;;;9.09;74.74;100089.66;5008396;28;20056;-83
2022/05/04 01:16:02;;;;;;;13.38;5.95;;;;;;;8.98;74.87;100091.41;5006931;28;20485;-84
2022/05/04 01:18:28;;;;;;;17.30;7.35;;;;;;;8.82;75.70;100089.47;5007627;28;20381;-82
2022/05/04 01:20:53;;;;;;;17.15;8.32;;;;;;;8.89;75.39;100090.13;5006719;28;20503;-83
2022/05/04 01:23:19;;;;;;;13.17;7.20;;;;;;;9.01;74.88;100086.53;5007251;28;20037;-83
2022/05/04 01:25:45;;;;;;;15.02;8.23;;;;;;;8.95;75.44;100083.72;5006687;28;20293;-82
2022/05/04 01:28:10;;;;;;;13.80;7.00;;;;;;;8.82;75.58;100086.75;5006953;28;20112;-82
2022/05/04 01:30:36;;;;;;;24.38;9.05;;;;;;;8.67;75.93;100090.03;5006841;28;20042;-83
2022/05/04 01:33:02;;;;;;;20.63;9.77;;;;;;;8.57;76.52;100090.66;5006315;28;20103;-82
2022/05/04 01:35:28;;;;;;;18.80;9.18;;;;;;;8.60;76.47;100093.72;5007097;28;20468;-83
2022/05/04 01:37:53;;;;;;;17.40;9.23;;;;;;;8.70;75.72;100090.38;5006080;28;20049;-83
2022/05/04 01:40:19;;;;;;;13.05;7.35;;;;;;;8.50;76.73;100093.50;5006258;28;20075;-82
2022/05/04 01:42:44;;;;;;;17.10;9.60;;;;;;;8.43;76.89;100082.78;5006366;28;20025;-83
2022/05/04 01:45:10;;;;;;;17.57;9.73;;;;;;;8.55;76.51;100092.75;5007209;28;20026;-83
2022/05/04 01:47:36;;;;;;;17.17;9.15;;;;;;;8.59;76.33;100096.69;5011184;28;20266;-83
2022/05/04 01:50:03;;;;;;;24.02;9.48;;;;;;;8.63;76.24;100092.41;5025903;28;20029;-82
2022/05/04 01:52:29;;;;;;;21.58;8.30;;;;;;;8.64;76.05;100091.34;4987937;28;20034;-83
2022/05/04 01:54:55;;;;;;;13.93;7.28;;;;;;;8.34;77.01;100089.69;4986704;28;20541;-83
2022/05/04 01:57:20;;;;;;;15.38;7.55;;;;;;;8.41;77.54;100093.91;4987171;28;20574;-83
2022/05/04 01:59:45;;;;;;;17.77;8.63;;;;;;;8.45;76.60;100086.09;4986569;28;20517;-83
2022/05/04 02:02:11;;;;;;;15.03;8.90;;;;;;;8.44;76.56;100083.63;5003987;28;20029;-82
2022/05/04 02:04:37;;;;;;;15.23;8.32;;;;;;;8.33;76.53;100082.59;5006417;28;20264;-83
2022/05/04 02:07:03;;;;;;;20.77;8.43;;;;;;;8.50;76.56;100088.88;5005888;28;20033;-83
2022/05/04 02:09:29;;;;;;;21.15;10.57;;;;;;;8.13;77.50;100078.41;5006526;28;20041;-83
2022/05/04 02:11:55;;;;;;;16.90;9.43;;;;;;;7.99;78.18;100084.09;5003766;28;20108;-83
2022/05/04 02:14:20;;;;;;;18.88;9.57;;;;;;;7.86;79.11;100082.47;5006573;28;20465;-82
2022/05/04 02:16:45;;;;;;;15.73;9.68;;;;;;;8.01;78.07;100081.97;5005820;28;20028;-82
2022/05/04 02:19:11;;;;;;;18.77;9.00;;;;;;;8.05;77.89;100085.03;5006010;28;20263;-83
2022/05/04 02:21:37;;;;;;;18.58;8.15;;;;;;;7.90;78.84;100085.53;5005317;28;20034;-83
2022/05/04 02:24:02;;;;;;;15.50;8.27;;;;;;;8.00;78.31;100085.75;5006312;28;20050;-83
2022/05/04 02:26:27;;;;;;;16.52;7.72;;;;;;;7.97;77.99;100085.41;5005948;28;20058;-83
2022/05/04 02:28:53;;;;;;;14.23;7.63;;;;;;;7.97;78.49;100085.41;5005773;28;20030;-83
2022/05/04 02:31:31;;;;;;;18.73;8.30;;;;;;;7.78;78.63;100083.66;5005796;28;20753;-83
2022/05/04 02:33:56;;;;;;;15.20;7.65;;;;;;;7.54;79.40;100077.44;5005074;28;20746;-85
2022/05/04 02:39:05;;;;;;;23.48;9.82;;;;;;;7.62;79.02;100079.78;5006467;28;20618;-83
2022/05/04 02:41:31;;;;;;;20.73;8.07;;;;;;;7.59;79.32;100089.22;5003941;28;20133;-83
2022/05/04 02:43:56;;;;;;;20.77;9.43;;;;;;;7.55;79.69;100087.22;5004291;28;20129;-83
2022/05/04 02:46:23;;;;;;;19.13;9.20;;;;;;;7.50;79.31;100087.09;5004949;28;20112;-82
2022/05/04 02:48:49;;;;;;;14.85;8.00;;;;;;;7.47;79.61;100094.66;5020804;28;20341;-84
2022/05/04 02:51:14;;;;;;;13.23;7.60;;;;;;;7.58;79.59;100095.72;5014877;28;20769;-83
2022/05/04 02:53:40;;;;;;;19.45;7.20;;;;;;;7.65;79.65;100094.75;5005614;28;20497;-83
2022/05/04 02:56:06;;;;;;;14.93;7.63;;;;;;;7.89;78.28;100083.88;5005715;28;20117;-83
2022/05/04 02:58:32;;;;;;;14.07;7.22;;;;;;;7.75;77.84;100088.75;5005527;28;20125;-83
2022/05/04 03:04:11;;;;;;;17.27;8.65;;;;;;;7.47;78.78;100089.22;4983889;28;20500;-83
2022/05/04 03:06:41;;;;;;;15.82;8.73;;;;;;;7.44;79.15;100088.88;4986126;28;20031;-82
2022/05/04 03:09:09;;;;;;;16.35;9.32;;;;;;;6.82;80.42;100097.16;4986107;28;20049;-83
2022/05/04 03:14:20;;;;;;;14.77;8.57;;;;;;;7.09;80.40;100088.63;5005866;28;20487;-83
2022/05/04 03:16:46;;;;;;;15.90;8.32;;;;;;;7.42;79.69;100085.56;5004153;28;20038;-83
2022/05/04 03:19:11;;;;;;;18.52;7.97;;;;;;;7.65;78.62;100073.03;5005348;28;20117;-83
2022/05/04 03:21:36;;;;;;;16.47;8.30;;;;;;;7.55;78.68;100079.06;5004773;28;20113;-83
2022/05/04 03:24:02;;;;;;;13.97;7.63;;;;;;;7.79;78.27;100073.66;5005306;28;20267;-83
2022/05/04 03:26:27;;;;;;;13.60;7.38;;;;;;;7.63;78.34;100075.19;5005684;28;20913;-82
2022/05/04 03:28:53;;;;;;;17.70;8.90;;;;;;;7.39;78.82;100076.00;5005172;28;20483;-82
2022/05/04 03:31:19;;;;;;;13.85;7.75;;;;;;;7.43;78.22;100074.47;5013665;28;20506;-83
2022/05/04 03:33:44;;;;;;;12.82;7.78;;;;;;;7.40;78.80;100071.41;5004789;28;20530;-83
2022/05/04 03:36:10;;;;;;;16.70;8.98;;;;;;;7.39;78.31;100077.91;5005954;28;20431;-82
2022/05/04 03:38:36;;;;;;;15.55;6.30;;;;;;;7.01;80.02;100075.41;5004242;28;20578;-83
2022/05/04 03:41:01;;;;;;;15.70;7.95;;;;;;;7.11;80.29;100085.66;5004926;28;20041;-83
2022/05/04 03:43:27;;;;;;;17.70;8.45;;;;;;;7.23;79.46;100085.69;5005029;28;20022;-83
2022/05/04 03:45:53;;;;;;;21.20;8.13;;;;;;;7.44;79.04;100078.03;5004452;28;20443;-83
2022/05/04 03:48:18;;;;;;;22.52;7.70;;;;;;;7.44;78.72;100073.44;5015226;28;20704;-83
2022/05/04 03:50:46;;;;;;;15.70;7.00;;;;;;;7.38;78.77;100068.13;5016871;28;20026;-82
2022/05/04 03:53:12;;;;;;;12.10;6.75;;;;;;;7.34;78.61;100068.56;5005378;28;20247;-83
2022/05/04 03:55:37;;;;;;;17.35;7.15;;;;;;;7.22;78.49;100074.00;5004404;28;20032;-83
2022/05/04 03:58:02;;;;;;;16.52;7.20;;;;;;;7.28;78.75;100074.13;5005511;28;20033;-83
2022/05/04 04:00:28;;;;;;;14.15;6.32;;;;;;;7.27;78.52;100073.31;5004008;28;20026;-83
2022/05/04 04:03:06;;;;;;;16.83;7.93;;;;;;;7.05;79.11;100067.63;5004376;28;20500;-83
2022/05/04 04:05:31;;;;;;;15.52;6.90;;;;;;;7.09;79.04;100072.34;5004785;28;20081;-83
2022/05/04 04:07:57;;;;;;;15.18;8.25;;;;;;;6.98;79.80;100075.84;5004284;28;20030;-82
2022/05/04 04:10:22;;;;;;;16.10;8.48;;;;;;;6.74;80.62;100075.81;5004820;28;20990;-83
2022/05/04 04:12:48;;;;;;;10.35;6.65;;;;;;;6.99;79.89;100074.81;5004128;28;20033;-83
2022/05/04 04:15:13;;;;;;;24.40;10.10;;;;;;;6.95;79.57;100085.28;5004954;28;20099;-83
2022/05/04 04:17:38;;;;;;;19.07;7.70;;;;;;;6.93;80.16;100073.03;5004229;28;20298;-83
2022/05/04 04:22:48;;;;;;;;;;;;;;;7.02;79.92;100090.59;5005600;28;20323;-83
2022/05/04 04:25:13;;;;;;;11.20;6.30;;;;;;;7.04;79.97;100074.91;5004337;28;20339;-84
2022/05/04 04:27:38;;;;;;;15.20;8.13;;;;;;;6.97;80.53;100087.75;5004613;28;20448;-82
2022/05/04 04:30:04;;;;;;;15.90;6.88;;;;;;;7.25;80.01;100075.41;5003442;28;20775;-83
2022/05/04 04:32:29;;;;;;;19.45;8.02;;;;;;;7.23;79.29;100088.38;5004800;28;20022;-83
2022/05/04 04:34:55;;;;;;;16.57;7.87;;;;;;;7.29;79.04;100084.75;5004060;28;20061;-83
2022/05/04 04:37:20;;;;;;;16.27;8.10;;;;;;;7.31;78.58;100087.22;5004744;28;20294;-82
2022/05/04 04:39:45;;;;;;;16.45;8.00;;;;;;;7.24;78.69;100082.72;5004458;28;20256;-83
2022/05/04 04:42:12;;;;;;;17.30;8.48;;;;;;;7.28;79.01;100088.50;5003931;28;20033;-83
2022/05/04 04:44:38;;;;;;;16.20;8.15;;;;;;;7.30;78.95;100089.09;5007753;28;20395;-83
2022/05/04 04:47:04;;;;;;;12.75;7.32;;;;;;;7.30;78.83;100089.09;5007476;28;20121;-83
2022/05/04 04:49:29;;;;;;;20.27;8.82;;;;;;;7.33;79.02;100096.78;5027818;28;20040;-83
2022/05/04 04:51:54;;;;;;;16.03;6.27;;;;;;;7.38;79.26;100093.38;5011611;28;20060;-83
2022/05/04 04:54:19;;;;;;;14.23;7.40;;;;;;;7.48;78.58;100106.34;5008051;28;20814;-83
2022/05/04 04:56:45;;;;;;;13.37;7.13;;;;;;;7.59;77.86;100100.06;5007651;28;20264;-83
2022/05/04 05:01:54;;;;;;;30.25;8.43;;;;;;;7.58;77.78;100101.16;5006817;28;20275;-83
2022/05/04 05:04:19;;;;;;;18.00;9.27;;;;;;;7.62;78.44;100096.06;5007437;28;20045;-83
2022/05/04 05:06:44;;;;;;;24.83;8.95;;;;;;;7.59;78.17;100097.38;5007805;28;20287;-82
2022/05/04 05:09:10;;;;;;;15.55;7.15;;;;;;;7.99;77.04;100094.97;5007032;28;20040;-83
2022/05/04 05:11:35;;;;;;;17.80;8.03;;;;;;;8.05;76.14;100096.69;5006432;28;20050;-82
2022/05/04 05:16:44;;;;;;;16.73;6.78;;;;;;;7.88;77.17;100102.06;5007463;28;20108;-82
2022/05/04 05:19:09;;;;;;;17.13;7.57;;;;;;;7.92;77.06;100095.09;5007597;28;20046;-84
2022/05/04 05:21:35;;;;;;;15.48;9.23;;;;;;;7.76;77.27;100102.06;5006713;28;20347;-84
2022/05/04 05:24:00;;;;;;;16.40;8.87;;;;;;;7.90;77.36;100104.53;5006149;28;20026;-83
2022/05/04 05:26:25;;;;;;;16.83;10.20;;;;;;;8.21;76.19;100102.47;5006433;28;20251;-83
2022/05/04 05:28:51;;;;;;;14.38;7.85;;;;;;;8.20;75.62;100095.38;5007805;28;20101;-83
2022/05/04 05:31:16;;;;;;;15.55;8.70;;;;;;;7.98;76.44;100096.03;5006058;28;20099;-83
2022/05/04 05:33:45;;;;;;;18.17;7.30;;;;;;;8.21;76.14;100097.03;5007236;28;20208;-83
2022/05/04 05:36:10;;;;;;;19.73;8.90;;;;;;;8.27;75.88;100096.06;5006759;28;20257;-83
2022/05/04 05:38:35;;;;;;;17.98;8.40;;;;;;;8.21;75.63;100102.47;5006174;28;20399;-84
2022/05/04 05:41:01;;;;;;;21.38;9.95;;;;;;;8.13;76.13;100100.13;5006825;28;20699;-84
2022/05/04 05:43:28;;;;;;;15.88;7.13;;;;;;;8.49;74.63;100100.84;5006305;28;20421;-83
2022/05/04 05:45:53;;;;;;;14.23;7.57;;;;;;;8.45;75.57;100091.50;5006600;28;20029;-83
2022/05/04 05:48:19;;;;;;;12.80;6.10;;;;;;;8.84;73.32;100099.06;5016850;28;20021;-84
2022/05/04 05:50:44;;;;;;;23.30;8.18;;;;;;;8.74;73.18;100094.25;5007900;28;20022;-83
2022/05/04 05:53:10;;;;;;;17.30;6.82;;;;;;;8.80;73.33;100099.78;5005460;28;20068;-82
2022/05/04 05:55:35;;;;;;;20.25;7.28;;;;;;;8.99;72.19;100103.91;5006073;28;20053;-83
2022/05/04 05:58:01;;;;;;;30.83;8.35;;;;;;;8.87;72.36;100103.16;5006031;28;20041;-83
2022/05/04 06:00:26;;;;;;;17.92;8.00;;;;;;;8.82;73.00;100100.34;5004627;28;20068;-83
2022/05/04 06:02:52;;;;;;;17.25;6.32;;;;;;;8.87;73.28;100098.56;5004662;28;20384;-83
2022/05/04 06:05:17;;;;;;;15.05;8.32;;;;;;;9.10;72.44;100106.81;5005349;28;20026;-84
2022/05/04 06:07:42;;;;;;;14.35;6.85;;;;;;;9.05;72.67;100101.31;5006119;28;20026;-84
2022/05/04 06:12:52;;;;;;;20.10;7.95;;;;;;;9.36;71.46;100090.91;4984643;28;20311;-84
2022/05/04 06:15:17;;;;;;;20.33;8.35;;;;;;;9.41;71.12;100091.00;4987157;28;20026;-83
2022/05/04 06:17:44;;;;;;;17.38;9.07;;;;;;;9.31;71.33;100088.09;4985864;28;20255;-83
2022/05/04 06:20:09;;;;;;;15.90;8.07;;;;;;;9.34;71.31;100090.31;4999283;28;20333;-83
2022/05/04 06:22:35;;;;;;;22.75;8.75;;;;;;;9.64;70.31;100089.13;5005188;28;20288;-83
2022/05/04 06:25:01;;;;;;;15.95;8.02;;;;;;;9.49;71.17;100086.19;5006098;28;20018;-84
2022/05/04 06:27:29;;;;;;;15.82;7.82;;;;;;;9.74;70.31;100087.63;5005637;28;20053;-84
2022/05/04 06:35:22;;;;;;;14.25;7.13;;;;;;;9.71;69.67;100093.56;5004867;28;20124;-84
2022/05/04 06:37:47;;;;;;;24.40;7.75;;;;;;;9.69;69.85;100107.44;5006205;28;20037;-83
2022/05/04 06:40:12;;;;;;;17.47;6.27;;;;;;;9.68;69.47;100090.28;5004723;28;20034;-83
2022/05/04 06:42:39;;;;;;;16.20;6.60;;;;;;;9.91;69.26;100104.75;5003964;28;20678;-82
2022/05/04 06:45:06;;;;;;;15.55;7.45;;;;;;;9.94;69.18;100095.25;5005752;28;20025;-84
2022/05/04 06:47:31;;;;;;;24.52;9.13;;;;;;;9.89;69.29;100101.44;5006709;28;20040;-83
2022/05/04 06:49:56;;;;;;;18.75;7.72;;;;;;;9.84;70.12;100109.56;5005592;28;20469;-83
2022/05/04 06:52:24;;;;;;;18.70;8.15;;;;;;;9.88;70.18;100109.88;5002605;28;20120;-84
2022/05/04 06:54:50;;;;;;;14.45;6.53;;;;;;;10.16;68.01;100106.16;5006399;28;20117;-83
2022/05/04 06:57:15;;;;;;;19.55;9.02;;;;;;;10.10;68.72;100109.06;5004909;28;20508;-84
2022/05/04 06:59:40;;;;;;;22.43;8.57;;;;;;;10.28;68.81;100100.56;5004300;28;20022;-83
2022/05/04 07:02:06;;;;;;;25.17;9.02;;;;;;;10.34;69.08;100108.81;5004600;28;20313;-84
2022/05/04 07:04:31;;;;;;;26.00;9.52;;;;;;;10.30;68.92;100111.22;5005188;28;20111;-83
2022/05/04 07:06:58;;;;;;;35.25;8.20;;;;;;;10.23;68.36;100110.59;5005159;28;20033;-84
2022/05/04 07:09:23;;;;;;;19.63;10.20;;;;;;;10.26;69.10;100107.34;5005220;28;20033;-84
2022/05/04 07:11:48;;;;;;;22.13;8.50;;;;;;;10.59;68.95;100111.03;5004952;28;20042;-84
2022/05/04 07:14:14;;;;;;;17.95;8.50;;;;;;;10.52;67.97;100113.13;5004724;28;20053;-84
2022/05/04 07:16:40;;;;;;;19.95;8.63;;;;;;;10.51;67.85;100111.50;5006116;28;20052;-83
2022/05/04 07:19:05;;;;;;;25.25;9.32;;;;;;;10.70;67.87;100113.88;5003305;28;20124;-83
2022/05/04 07:21:31;;;;;;;17.65;8.30;;;;;;;10.55;68.04;100104.44;4998512;28;20423;-84
2022/05/04 07:23:57;;;;;;;22.83;8.90;;;;;;;10.51;68.02;100108.75;5002269;28;20030;-84
2022/05/04 07:26:22;;;;;;;18.00;8.43;;;;;;;10.38;69.28;100113.50;5004561;28;20412;-84
2022/05/04 07:28:47;;;;;;;17.85;7.68;;;;;;;10.46;68.08;100105.94;5004500;28;20072;-83
2022/05/04 07:31:12;;;;;;;18.75;9.25;;;;;;;10.33;68.90;100110.69;5002829;28;20022;-84
2022/05/04 07:33:38;;;;;;;18.42;7.75;;;;;;;10.67;68.59;100108.91;4997568;28;20454;-84
2022/05/04 07:36:03;;;;;;;27.40;9.40;;;;;;;10.65;69.57;100111.91;5013515;28;20120;-84
2022/05/04 07:38:29;;;;;;;25.45;9.43;;;;;;;10.33;69.96;100112.63;5005111;28;20030;-83
2022/05/04 07:43:38;;;;;;;14.95;7.72;;;;;;;10.76;69.10;100120.19;5004358;28;20073;-83
2022/05/04 07:46:03;;;;;;;17.15;8.00;;;;;;;10.79;68.68;100117.78;5004614;28;20053;-84
2022/05/04 07:48:29;;;;;;;20.10;10.07;;;;;;;10.86;68.09;100115.66;5003615;28;20034;-84
2022/05/04 07:53:38;;;;;;;18.08;9.30;;;;;;;10.78;69.19;100116.09;5005093;28;20503;-84
2022/05/04 07:56:04;;;;;;;19.40;8.07;;;;;;;10.98;67.90;100120.13;5004214;28;20113;-84
2022/05/04 07:58:29;;;;;;;22.63;10.15;;;;;;;10.86;68.76;100123.03;5004006;28;20480;-84
2022/05/04 08:06:23;;;;;;;18.83;10.07;;;;;;;11.50;66.69;100126.00;4984876;28;20061;-84
2022/05/04 08:08:48;;;;;;;18.50;8.80;;;;;;;11.37;68.33;100126.47;4984870;28;20030;-84
2022/05/04 08:11:13;;;;;;;19.33;10.18;;;;;;;11.42;67.21;100129.22;4993706;28;20045;-84
2022/05/04 08:13:39;;;;;;;17.63;8.53;;;;;;;11.38;68.06;100126.19;5016534;28;20376;-83
2022/05/04 08:16:04;;;;;;;15.27;7.38;;;;;;;11.58;66.82;100121.97;5024872;28;20320;-84
2022/05/04 08:18:30;;;;;;;22.42;9.52;;;;;;;11.74;67.09;100124.78;5027086;28;20124;-84
2022/05/04 08:20:55;;;;;;;17.33;8.65;;;;;;;11.55;67.49;100122.50;5035685;28;20038;-84
2022/05/04 08:23:21;;;;;;;18.27;8.98;;;;;;;11.79;66.05;100117.47;5007691;28;20022;-84
2022/05/04 08:25:47;;;;;;;19.48;8.57;;;;;;;11.63;66.39;100118.44;5008462;28;20492;-84
2022/05/04 08:28:13;;;;;;;25.98;8.88;;;;;;;11.41;67.17;100122.94;5007131;28;20053;-83
2022/05/04 08:30:39;;;;;;;16.65;7.88;;;;;;;11.82;66.54;100121.56;5022968;28;20250;-85
2022/05/04 08:33:05;;;;;;;18.58;9.13;;;;;;;11.93;67.69;100116.97;5007900;28;20205;-84
2022/05/04 08:35:30;;;;;;;19.58;8.60;;;;;;;11.91;66.36;100121.88;5007062;28;20029;-84
2022/05/04 08:37:56;;;;;;;13.77;9.83;;;;;;;11.95;66.17;100109.34;4990843;28;20089;-84
2022/05/04 08:40:21;;;;;;;24.58;10.57;;;;;;;12.15;65.86;100110.53;4989324;28;20260;-84
2022/05/04 08:42:46;;;;;;;17.25;10.63;;;;;;;12.33;66.90;100113.88;5007585;28;20052;-83
2022/05/04 08:45:14;;;;;;;19.02;9.27;;;;;;;12.41;66.37;100115.31;5007139;28;20049;-84
2022/05/04 08:47:41;;;;;;;26.58;9.48;;;;;;;12.22;66.05;100121.25;5007689;28;20030;-84
2022/05/04 08:50:15;;;;;;;20.48;9.70;;;;;;;12.10;65.64;100108.56;5006741;28;20496;-84
2022/05/04 08:52:51;;;;;;;31.55;10.55;;;;;;;12.06;65.61;100114.84;5022335;28;20500;-84
2022/05/04 08:55:17;;;;;;;21.48;9.32;;;;;;;12.21;66.45;100114.13;5007709;28;20639;-84
2022/05/04 08:57:43;;;;;;;15.57;7.90;;;;;;;12.44;64.84;100107.38;5006442;28;20446;-84
2022/05/04 09:00:10;;;;;;;26.23;10.18;;;;;;;12.56;64.58;100106.31;5007797;28;20033;-84
2022/05/04 09:02:36;;;;;;;18.33;9.35;;;;;;;12.70;65.76;100101.97;5006942;28;20122;-84
2022/05/04 09:05:20;;;;;;;16.45;9.82;;;;;;;12.92;63.94;100105.53;5007609;28;20041;-84
2022/05/04 09:07:53;;;;;;;17.55;9.88;;;;;;;13.05;63.76;100102.28;4991503;28;20054;-84
2022/05/04 09:10:32;;;;;;;25.97;11.00;;;;;;;13.05;64.17;100099.53;4988645;28;20047;-84
2022/05/04 09:13:11;;;;;;;16.65;10.13;;;;;;;13.19;63.51;100112.66;5022146;28;20259;-84
2022/05/04 09:15:40;;;;;;;27.27;9.02;;;;;;;13.13;63.88;100102.81;5006954;28;20432;-84
2022/05/04 09:18:06;;;;;;;21.60;10.02;;;;;;;13.14;63.19;100101.72;5007090;28;20030;-84
2022/05/04 09:20:45;;;;;;;17.48;9.95;;;;;;;13.08;63.32;100106.38;5007323;28;20198;-85
2022/05/04 09:23:22;;;;;;;15.02;8.18;;;;;;;13.37;62.63;100108.56;5004974;28;20197;-84
2022/05/04 09:25:52;;;;;;;18.67;8.90;;;;;;;13.40;62.39;100105.25;5007407;28;20030;-84
2022/05/04 09:28:18;;;;;;;14.30;7.85;;;;;;;13.40;62.95;100094.31;5005435;28;20082;-84
2022/05/04 09:30:48;;;;;;;18.05;9.65;;;;;;;13.45;62.35;100098.13;5006554;28;20552;-85
2022/05/04 09:33:34;;;;;;;22.98;12.20;;;;;;;13.75;61.69;100099.22;5006546;28;20033;-85
2022/05/04 09:36:05;;;;;;;20.08;10.40;;;;;;;13.42;61.52;100100.31;5004432;28;20041;-83
2022/05/04 09:46:52;;;;;;;16.45;8.85;;;;;;;14.28;60.67;100097.91;5006621;28;20040;-85
2022/05/04 09:49:22;;;;;;;19.42;10.13;;;;;;;14.00;60.86;100094.75;5005858;28;20500;-83
2022/05/04 09:51:51;;;;;;;22.92;9.40;;;;;;;14.07;62.05;100103.50;5005453;28;20125;-84
2022/05/04 09:54:27;;;;;;;20.80;11.65;;;;;;;14.59;60.21;100089.53;5005789;28;20079;-84
2022/05/04 09:56:55;;;;;;;17.63;11.00;;;;;;;14.90;59.37;100087.69;5005627;28;20037;-84
2022/05/04 09:59:23;;;;;;;20.92;11.55;;;;;;;14.82;59.11;100087.19;5006739;28;20041;-84
2022/05/04 10:01:50;;;;;;;23.70;11.45;;;;;;;14.85;58.38;100085.00;5005181;28;20028;-83
2022/05/04 10:04:16;;;;;;;20.90;11.82;;;;;;;14.84;59.06;100088.84;5006798;28;20034;-84
2022/05/04 10:06:43;;;;;;;22.10;10.98;;;;;;;14.69;59.53;100085.06;5003594;28;20103;-84
2022/05/04 10:09:09;;;;;;;18.67;11.30;;;;;;;14.66;59.65;100088.38;5004852;28;20030;-84
2022/05/04 10:11:35;;;;;;;30.40;11.20;;;;;;;14.45;59.41;100077.53;5004679;28;20053;-85
2022/05/04 10:14:04;;;;;;;22.20;11.57;;;;;;;14.56;58.73;100081.84;5006039;28;20025;-84
2022/05/04 10:17:04;;;;;;;22.63;12.77;;;;;;;14.95;57.83;100084.91;5006254;28;20026;-84
2022/05/04 10:20:00;;;;;;;20.27;11.75;;;;;;;15.32;57.89;100095.56;5005401;28;20034;-84
2022/05/04 10:25:42;;;;;;;19.80;10.63;;;;;;;15.51;56.40;100084.69;5024882;28;20721;-84
2022/05/04 10:28:12;;;;;;;32.10;12.27;;;;;;;15.78;56.10;100085.25;5023777;28;20570;-84
2022/05/04 10:30:55;;;;;;;22.02;12.73;;;;;;;15.99;57.09;100089.38;5020550;28;20026;-84
2022/05/04 10:33:35;;;;;;;22.48;12.88;;;;;;;15.96;56.01;100089.16;5004992;28;20130;-85
2022/05/04 10:36:15;;;;;;;28.95;13.73;;;;;;;15.73;55.86;100083.38;5002975;28;20030;-84
2022/05/04 10:38:45;;;;;;;35.13;14.02;;;;;;;15.66;55.43;100080.16;4986461;28;20062;-84
2022/05/04 10:41:12;;;;;;;30.13;15.85;;;;;;;15.82;55.51;100086.31;4992431;28;20026;-83
2022/05/04 10:43:45;;;;;;;18.58;12.02;;;;;;;15.40;55.90;100086.72;5005246;28;20026;-84
2022/05/04 10:46:20;;;;;;;21.83;14.00;;;;;;;15.45;56.02;100083.94;5004584;28;20507;-85
2022/05/04 10:48:51;;;;;;;24.58;12.90;;;;;;;15.63;55.82;100093.38;5005371;28;20034;-84
2022/05/04 10:51:21;;;;;;;30.77;15.38;;;;;;;15.54;55.23;100086.84;5005435;28;20033;-84
2022/05/04 10:54:13;;;;;;;26.33;12.02;;;;;;;15.54;55.88;100080.56;5004335;28;20036;-85
2022/05/04 10:56:42;;;;;;;38.63;16.55;;;;;;;15.25;55.72;100084.94;5005033;28;20048;-84
2022/05/04 10:59:08;;;;;;;22.88;14.38;;;;;;;15.36;55.85;100088.41;5002890;28;20042;-84
2022/05/04 11:01:38;;;;;;;26.88;15.38;;;;;;;15.11;56.91;100080.09;5005137;28;20031;-84
2022/05/04 11:04:15;;;;;;;27.73;15.82;;;;;;;15.34;56.02;100074.97;5005459;28;20026;-85
2022/05/04 11:06:49;;;;;;;26.80;15.27;;;;;;;15.50;55.29;100081.13;5004594;28;20037;-85
2022/05/04 11:09:17;;;;;;;21.42;12.40;;;;;;;15.51;55.59;100087.44;5005866;28;20041;-84
2022/05/04 11:11:45;;;;;;;26.10;15.70;;;;;;;15.21;55.33;100079.22;5003611;28;20049;-84
2022/05/04 11:14:12;;;;;;;20.05;12.20;;;;;;;15.13;56.13;100082.59;5005298;28;20042;-84
2022/05/04 11:16:39;;;;;;;23.05;13.80;;;;;;;15.48;55.71;100083.34;5004124;28;20057;-85
2022/05/04 11:19:05;;;;;;;32.50;15.57;;;;;;;15.49;54.75;100085.00;5004887;28;20025;-87
2022/05/04 11:21:32;;;;;;;31.20;16.83;;;;;;;15.50;55.43;100081.13;5004987;28;20057;-85
2022/05/04 11:24:00;;;;;;;25.50;14.52;;;;;;;15.92;54.94;100075.19;5002224;28;20034;-84
2022/05/04 11:26:38;;;;;;;30.08;15.38;;;;;;;16.08;53.10;100075.03;5003103;28;20018;-84
2022/05/04 11:29:15;;;;;;;21.27;13.30;;;;;;;16.38;53.46;100070.22;5001842;28;20092;-84
2022/05/04 11:31:46;;;;;;;33.58;16.38;;;;;;;16.49;52.77;100064.56;5003644;28;20022;-84
2022/05/04 11:34:15;;;;;;;27.30;15.10;;;;;;;16.71;53.09;100060.38;5004744;28;20065;-85
2022/05/04 11:36:46;;;;;;;30.92;16.30;;;;;;;16.66;52.07;100059.34;5003825;28;20030;-83
2022/05/04 11:39:20;;;;;;;32.10;16.60;;;;;;;16.85;52.28;100061.28;5011544;28;20033;-84
2022/05/04 11:41:51;;;;;;;25.10;14.88;;;;;;;17.14;51.42;100057.53;5001312;28;20018;-84
2022/05/04 11:44:18;;;;;;;25.58;16.48;;;;;;;17.04;52.10;100057.66;5004452;28;20033;-84
2022/05/04 11:46:47;;;;;;;38.78;20.73;;;;;;;17.00;50.89;100054.69;5003846;28;20112;-84
2022/05/04 11:49:13;;;;;;;30.85;18.30;;;;;;;17.00;51.18;100053.88;5004123;28;20116;-84
2022/05/04 11:51:39;;;;;;;27.23;18.17;;;;;;;17.20;50.70;100052.75;5006015;28;20152;-84
2022/05/04 11:56:49;;;;;;;25.67;17.80;;;;;;;17.00;49.53;100046.41;5006297;28;20041;-84
2022/05/04 11:59:14;;;;;;;32.30;17.60;;;;;;;17.06;50.20;100030.66;5007504;28;20030;-84
2022/05/04 12:01:40;;;;;;;30.30;18.70;;;;;;;17.23;49.55;100037.53;5008513;28;20076;-84
2022/05/04 12:04:07;;;;;;;30.65;18.90;;;;;;;17.44;49.87;100029.69;5008188;28;20432;-85
2022/05/04 12:06:34;;;;;;;23.90;17.85;;;;;;;17.13;49.65;100033.84;5002330;28;20093;-84
2022/05/04 12:08:59;;;;;;;31.90;17.80;;;;;;;17.23;49.28;100021.00;4988599;28;20488;-84
2022/05/04 12:11:28;;;;;;;24.50;17.70;;;;;;;17.30;50.25;100023.34;4997307;28;20042;-84
2022/05/04 12:13:56;;;;;;;29.10;17.92;;;;;;;17.53;49.52;100027.06;5008665;28;20393;-84